sensor_id;sensor_type;location;lat;lon;timestamp;pressure;altitude;pressure_sealevel;temperature;humidity
78210;BME280;67485;48.816;9.930;2023-03-04T00:00:57;97308.88;;;-0.87;81.51
78210;BME280;67485;48.816;9.930;2023-03-04T00:03:23;97309.81;;;-0.85;81.15
78210;BME280;67485;48.816;9.930;2023-03-04T00:05:48;97304.72;;;-0.82;80.93
78210;BME280;67485;48.816;9.930;2023-03-04T00:08:14;97300.34;;;-0.86;80.70
78210;BME280;67485;48.816;9.930;2023-03-04T00:10:40;97298.59;;;-0.87;81.05
78210;BME280;67485;48.816;9.930;2023-03-04T00:13:05;97306.41;;;-0.84;81.37
78210;BME280;67485;48.816;9.930;2023-03-04T00:15:31;97304.72;;;-0.82;80.86
78210;BME280;67485;48.816;9.930;2023-03-04T00:17:57;97302.94;;;-0.84;80.53
78210;BME280;67485;48.816;9.930;2023-03-04T00:20:22;97300.91;;;-0.98;80.70
78210;BME280;67485;48.816;9.930;2023-03-04T00:22:48;97298.63;;;-1.19;81.31
78210;BME280;67485;48.816;9.930;2023-03-04T00:25:14;97299.09;;;-1.32;82.45
78210;BME280;67485;48.816;9.930;2023-03-04T00:27:40;97301.00;;;-1.26;82.76
78210;BME280;67485;48.816;9.930;2023-03-04T00:30:07;97300.19;;;-1.24;82.39
78210;BME280;67485;48.816;9.930;2023-03-04T00:32:33;97300.06;;;-1.28;82.02
78210;BME280;67485;48.816;9.930;2023-03-04T00:34:59;97301.69;;;-1.32;81.98
78210;BME280;67485;48.816;9.930;2023-03-04T00:37:24;97306.22;;;-1.54;83.33
78210;BME280;67485;48.816;9.930;2023-03-04T00:39:50;97301.25;;;-1.48;83.57
78210;BME280;67485;48.816;9.930;2023-03-04T00:42:16;97300.34;;;-1.50;83.96
78210;BME280;67485;48.816;9.930;2023-03-04T00:44:41;97301.53;;;-1.37;84.13
78210;BME280;67485;48.816;9.930;2023-03-04T00:47:07;97294.13;;;-1.26;83.88
78210;BME280;67485;48.816;9.930;2023-03-04T00:49:33;97302.09;;;-1.17;83.65
78210;BME280;67485;48.816;9.930;2023-03-04T00:51:59;97306.41;;;-1.16;83.56
78210;BME280;67485;48.816;9.930;2023-03-04T00:54:25;97295.88;;;-1.25;82.60
78210;BME280;67485;48.816;9.930;2023-03-04T00:56:50;97295.84;;;-1.26;81.81
78210;BME280;67485;48.816;9.930;2023-03-04T00:59:16;97300.13;;;-1.25;81.63
78210;BME280;67485;48.816;9.930;2023-03-04T01:01:41;97300.69;;;-1.37;82.17
78210;BME280;67485;48.816;9.930;2023-03-04T01:04:07;97293.78;;;-1.38;82.46
78210;BME280;67485;48.816;9.930;2023-03-04T01:06:33;97288.16;;;-1.55;82.99
78210;BME280;67485;48.816;9.930;2023-03-04T01:08:59;97286.72;;;-1.45;83.09
78210;BME280;67485;48.816;9.930;2023-03-04T01:11:24;97286.03;;;-1.40;83.18
78210;BME280;67485;48.816;9.930;2023-03-04T01:13:50;97283.66;;;-1.34;82.49
78210;BME280;67485;48.816;9.930;2023-03-04T01:16:15;97284.31;;;-1.39;82.32
78210;BME280;67485;48.816;9.930;2023-03-04T01:18:41;97280.78;;;-1.43;82.64
78210;BME280;67485;48.816;9.930;2023-03-04T01:21:07;97278.72;;;-1.56;82.56
78210;BME280;67485;48.816;9.930;2023-03-04T01:23:33;97277.84;;;-1.57;82.42
78210;BME280;67485;48.816;9.930;2023-03-04T01:26:00;97277.88;;;-1.55;82.17
78210;BME280;67485;48.816;9.930;2023-03-04T01:28:26;97270.50;;;-1.43;81.86
78210;BME280;67485;48.816;9.930;2023-03-04T01:30:51;97268.88;;;-1.41;81.04
78210;BME280;67485;48.816;9.930;2023-03-04T01:33:17;97262.69;;;-1.48;80.68
78210;BME280;67485;48.816;9.930;2023-03-04T01:35:43;97265.00;;;-1.57;80.52
78210;BME280;67485;48.816;9.930;2023-03-04T01:38:08;97263.31;;;-1.56;80.82
78210;BME280;67485;48.816;9.930;2023-03-04T01:40:34;97266.50;;;-1.65;80.94
78210;BME280;67485;48.816;9.930;2023-03-04T01:43:00;97267.94;;;-1.75;81.25
78210;BME280;67485;48.816;9.930;2023-03-04T01:45:26;97267.03;;;-1.75;81.44
78210;BME280;67485;48.816;9.930;2023-03-04T01:47:51;97264.44;;;-1.77;81.08
78210;BME280;67485;48.816;9.930;2023-03-04T01:50:31;97260.00;;;-1.83;81.35
78210;BME280;67485;48.816;9.930;2023-03-04T01:52:57;97258.31;;;-1.81;81.29
78210;BME280;67485;48.816;9.930;2023-03-04T01:55:23;97262.66;;;-1.80;81.33
78210;BME280;67485;48.816;9.930;2023-03-04T01:57:50;97260.94;;;-1.79;81.60
78210;BME280;67485;48.816;9.930;2023-03-04T02:00:31;97268.59;;;-1.81;82.06
78210;BME280;67485;48.816;9.930;2023-03-04T02:03:01;97261.53;;;-1.88;82.67
78210;BME280;67485;48.816;9.930;2023-03-04T02:05:29;97263.09;;;-1.93;83.09
78210;BME280;67485;48.816;9.930;2023-03-04T02:07:56;97261.47;;;-1.91;82.68
78210;BME280;67485;48.816;9.930;2023-03-04T02:10:22;97263.81;;;-1.99;83.36
78210;BME280;67485;48.816;9.930;2023-03-04T02:12:49;97264.97;;;-1.89;83.12
78210;BME280;67485;48.816;9.930;2023-03-04T02:15:15;97257.59;;;-2.05;83.47
78210;BME280;67485;48.816;9.930;2023-03-04T02:17:40;97261.72;;;-2.10;84.30
78210;BME280;67485;48.816;9.930;2023-03-04T02:23:32;97263.22;;;-1.90;84.66
78210;BME280;67485;48.816;9.930;2023-03-04T02:26:24;97272.00;;;-1.82;84.46
78210;BME280;67485;48.816;9.930;2023-03-04T02:28:53;97265.66;;;-1.93;82.95
78210;BME280;67485;48.816;9.930;2023-03-04T02:31:35;97261.09;;;-2.03;82.72
78210;BME280;67485;48.816;9.930;2023-03-04T02:34:10;97269.06;;;-2.23;82.74
78210;BME280;67485;48.816;9.930;2023-03-04T02:36:38;97270.22;;;-2.40;82.99
78210;BME280;67485;48.816;9.930;2023-03-04T02:39:20;97267.03;;;-2.61;84.26
78210;BME280;67485;48.816;9.930;2023-03-04T02:41:49;97267.88;;;-2.62;85.21
78210;BME280;67485;48.816;9.930;2023-03-04T02:44:27;97266.25;;;-2.58;85.96
78210;BME280;67485;48.816;9.930;2023-03-04T02:46:53;97267.91;;;-2.60;86.26
78210;BME280;67485;48.816;9.930;2023-03-04T02:49:21;97272.34;;;-2.54;86.20
78210;BME280;67485;48.816;9.930;2023-03-04T02:51:50;97275.19;;;-2.47;86.41
78210;BME280;67485;48.816;9.930;2023-03-04T02:54:21;97269.47;;;-2.38;86.25
78210;BME280;67485;48.816;9.930;2023-03-04T02:56:49;97266.31;;;-2.29;86.49
78210;BME280;67485;48.816;9.930;2023-03-04T02:59:16;97268.78;;;-2.32;86.28
78210;BME280;67485;48.816;9.930;2023-03-04T03:01:42;97259.44;;;-2.30;85.83
78210;BME280;67485;48.816;9.930;2023-03-04T03:04:08;97263.03;;;-2.25;85.69
78210;BME280;67485;48.816;9.930;2023-03-04T03:06:34;97256.19;;;-2.24;86.05
78210;BME280;67485;48.816;9.930;2023-03-04T03:09:00;97258.44;;;-2.35;85.39
78210;BME280;67485;48.816;9.930;2023-03-04T03:11:26;97262.78;;;-2.33;85.12
78210;BME280;67485;48.816;9.930;2023-03-04T03:13:52;97263.75;;;-2.29;84.00
78210;BME280;67485;48.816;9.930;2023-03-04T03:16:18;97263.66;;;-2.32;83.54
78210;BME280;67485;48.816;9.930;2023-03-04T03:18:44;97259.38;;;-2.32;83.72
78210;BME280;67485;48.816;9.930;2023-03-04T03:21:09;97260.25;;;-2.31;83.46
78210;BME280;67485;48.816;9.930;2023-03-04T03:23:35;97263.66;;;-2.32;82.84
78210;BME280;67485;48.816;9.930;2023-03-04T03:26:01;97269.38;;;-2.41;83.13
78210;BME280;67485;48.816;9.930;2023-03-04T03:28:27;97260.63;;;-2.48;83.28
78210;BME280;67485;48.816;9.930;2023-03-04T03:30:53;97269.66;;;-2.59;83.79
78210;BME280;67485;48.816;9.930;2023-03-04T03:33:18;97266.41;;;-2.53;84.33
78210;BME280;67485;48.816;9.930;2023-03-04T03:35:44;97271.66;;;-2.50;84.12
78210;BME280;67485;48.816;9.930;2023-03-04T03:38:10;97267.81;;;-2.63;84.51
78210;BME280;67485;48.816;9.930;2023-03-04T03:40:36;97267.59;;;-2.69;84.82
78210;BME280;67485;48.816;9.930;2023-03-04T03:43:02;97267.59;;;-2.69;85.67
78210;BME280;67485;48.816;9.930;2023-03-04T03:45:28;97263.56;;;-2.63;85.52
78210;BME280;67485;48.816;9.930;2023-03-04T03:47:53;97264.22;;;-2.68;85.72
78210;BME280;67485;48.816;9.930;2023-03-04T03:50:19;97258.50;;;-2.59;85.85
78210;BME280;67485;48.816;9.930;2023-03-04T03:52:45;97249.91;;;-2.62;85.00
78210;BME280;67485;48.816;9.930;2023-03-04T03:55:10;97254.16;;;-2.62;84.24
78210;BME280;67485;48.816;9.930;2023-03-04T03:57:36;97256.84;;;-2.59;83.84
78210;BME280;67485;48.816;9.930;2023-03-04T04:00:03;97257.66;;;-2.60;82.97
78210;BME280;67485;48.816;9.930;2023-03-04T04:02:38;97263.31;;;-2.70;82.82
78210;BME280;67485;48.816;9.930;2023-03-04T04:05:04;97257.34;;;-2.69;82.86
78210;BME280;67485;48.816;9.930;2023-03-04T04:07:31;97257.28;;;-2.71;82.64
78210;BME280;67485;48.816;9.930;2023-03-04T04:09:56;97256.31;;;-2.74;82.20
78210;BME280;67485;48.816;9.930;2023-03-04T04:12:22;97263.81;;;-2.81;82.96
78210;BME280;67485;48.816;9.930;2023-03-04T04:14:48;97252.22;;;-2.97;82.93
78210;BME280;67485;48.816;9.930;2023-03-04T04:17:14;97265.06;;;-2.95;82.63
78210;BME280;67485;48.816;9.930;2023-03-04T04:19:40;97259.00;;;-2.97;82.30
78210;BME280;67485;48.816;9.930;2023-03-04T04:22:12;97262.38;;;-2.98;82.58
78210;BME280;67485;48.816;9.930;2023-03-04T04:24:38;97255.59;;;-2.98;82.51
78210;BME280;67485;48.816;9.930;2023-03-04T04:27:04;97261.47;;;-3.00;82.42
78210;BME280;67485;48.816;9.930;2023-03-04T04:29:29;97267.25;;;-3.06;82.71
78210;BME280;67485;48.816;9.930;2023-03-04T04:31:56;97266.97;;;-3.15;82.27
78210;BME280;67485;48.816;9.930;2023-03-04T04:34:22;97269.44;;;-3.17;82.51
78210;BME280;67485;48.816;9.930;2023-03-04T04:36:48;97264.44;;;-3.14;82.67
78210;BME280;67485;48.816;9.930;2023-03-04T04:39:14;97266.69;;;-2.97;82.15
78210;BME280;67485;48.816;9.930;2023-03-04T04:41:41;97267.50;;;-2.98;81.63
78210;BME280;67485;48.816;9.930;2023-03-04T04:44:08;97258.81;;;-3.03;81.34
78210;BME280;67485;48.816;9.930;2023-03-04T04:46:34;97258.81;;;-3.03;80.90
78210;BME280;67485;48.816;9.930;2023-03-04T04:49:00;97259.53;;;-3.07;81.08
78210;BME280;67485;48.816;9.930;2023-03-04T04:51:26;97265.38;;;-3.12;80.74
78210;BME280;67485;48.816;9.930;2023-03-04T04:53:52;97264.53;;;-3.11;80.82
78210;BME280;67485;48.816;9.930;2023-03-04T04:56:21;97261.28;;;-3.06;81.08
78210;BME280;67485;48.816;9.930;2023-03-04T04:58:49;97263.03;;;-3.05;80.83
78210;BME280;67485;48.816;9.930;2023-03-04T05:01:15;97265.38;;;-3.12;81.37
78210;BME280;67485;48.816;9.930;2023-03-04T05:03:41;97258.25;;;-3.20;81.30
78210;BME280;67485;48.816;9.930;2023-03-04T05:06:08;97262.94;;;-3.33;81.68
78210;BME280;67485;48.816;9.930;2023-03-04T05:08:34;97267.31;;;-3.30;82.19
78210;BME280;67485;48.816;9.930;2023-03-04T05:11:01;97261.97;;;-3.36;81.77
78210;BME280;67485;48.816;9.930;2023-03-04T05:13:27;97268.88;;;-3.34;82.41
78210;BME280;67485;48.816;9.930;2023-03-04T05:15:55;97268.00;;;-3.34;83.68
78210;BME280;67485;48.816;9.930;2023-03-04T05:18:22;97272.09;;;-3.39;84.01
78210;BME280;67485;48.816;9.930;2023-03-04T05:20:56;97273.31;;;-3.54;85.27
78210;BME280;67485;48.816;9.930;2023-03-04T05:23:23;97278.22;;;-3.60;86.71
78210;BME280;67485;48.816;9.930;2023-03-04T05:25:49;97268.94;;;-3.56;86.37
78210;BME280;67485;48.816;9.930;2023-03-04T05:28:16;97266.88;;;-3.43;85.99
78210;BME280;67485;48.816;9.930;2023-03-04T05:30:43;97272.97;;;-3.39;85.60
78210;BME280;67485;48.816;9.930;2023-03-04T05:33:09;97269.91;;;-3.29;85.66
78210;BME280;67485;48.816;9.930;2023-03-04T05:35:37;97264.78;;;-3.29;85.23
78210;BME280;67485;48.816;9.930;2023-03-04T05:38:04;97271.88;;;-3.46;85.67
78210;BME280;67485;48.816;9.930;2023-03-04T05:40:31;97275.69;;;-3.59;86.02
78210;BME280;67485;48.816;9.930;2023-03-04T05:42:57;97278.44;;;-3.54;87.51
78210;BME280;67485;48.816;9.930;2023-03-04T05:45:23;97284.75;;;-3.44;87.28
78210;BME280;67485;48.816;9.930;2023-03-04T05:47:49;97285.06;;;-3.35;87.98
78210;BME280;67485;48.816;9.930;2023-03-04T05:50:15;97284.44;;;-3.29;87.69
78210;BME280;67485;48.816;9.930;2023-03-04T05:52:40;97281.78;;;-3.31;86.93
78210;BME280;67485;48.816;9.930;2023-03-04T05:55:07;97281.03;;;-3.28;87.62
78210;BME280;67485;48.816;9.930;2023-03-04T05:57:32;97280.25;;;-3.26;87.41
78210;BME280;67485;48.816;9.930;2023-03-04T05:59:58;97276.03;;;-3.25;86.86
78210;BME280;67485;48.816;9.930;2023-03-04T06:02:24;97295.00;;;-3.20;87.29
78210;BME280;67485;48.816;9.930;2023-03-04T06:04:49;97288.84;;;-3.25;87.61
78210;BME280;67485;48.816;9.930;2023-03-04T06:07:15;97288.28;;;-3.16;87.95
78210;BME280;67485;48.816;9.930;2023-03-04T06:09:41;97295.09;;;-3.17;87.28
78210;BME280;67485;48.816;9.930;2023-03-04T06:12:10;97300.38;;;-3.38;86.38
78210;BME280;67485;48.816;9.930;2023-03-04T06:14:36;97300.81;;;-3.48;86.27
78210;BME280;67485;48.816;9.930;2023-03-04T06:17:02;97296.72;;;-3.43;86.02
78210;BME280;67485;48.816;9.930;2023-03-04T06:19:28;97298.06;;;-3.30;86.14
78210;BME280;67485;48.816;9.930;2023-03-04T06:21:54;97312.34;;;-3.13;86.27
78210;BME280;67485;48.816;9.930;2023-03-04T06:24:19;97312.69;;;-3.02;85.81
78210;BME280;67485;48.816;9.930;2023-03-04T06:26:45;97316.72;;;-3.10;85.81
78210;BME280;67485;48.816;9.930;2023-03-04T06:29:11;97314.41;;;-3.02;85.38
78210;BME280;67485;48.816;9.930;2023-03-04T06:31:37;97315.75;;;-2.88;85.67
78210;BME280;67485;48.816;9.930;2023-03-04T06:34:04;97328.06;;;-2.78;85.59
78210;BME280;67485;48.816;9.930;2023-03-04T06:36:29;97328.13;;;-2.76;86.24
78210;BME280;67485;48.816;9.930;2023-03-04T06:38:55;97329.25;;;-2.68;85.70
78210;BME280;67485;48.816;9.930;2023-03-04T06:41:20;97326.00;;;-2.62;86.83
78210;BME280;67485;48.816;9.930;2023-03-04T06:43:46;97327.97;;;-2.55;87.10
78210;BME280;67485;48.816;9.930;2023-03-04T06:46:12;97335.13;;;-2.45;87.21
78210;BME280;67485;48.816;9.930;2023-03-04T06:48:37;97337.84;;;-2.40;86.99
78210;BME280;67485;48.816;9.930;2023-03-04T06:51:05;97340.19;;;-2.48;87.37
78210;BME280;67485;48.816;9.930;2023-03-04T06:53:31;97332.59;;;-2.43;87.29
78210;BME280;67485;48.816;9.930;2023-03-04T06:55:56;97342.41;;;-2.31;87.58
78210;BME280;67485;48.816;9.930;2023-03-04T06:58:22;97343.34;;;-2.29;87.58
78210;BME280;67485;48.816;9.930;2023-03-04T07:00:48;97344.25;;;-2.27;88.01
78210;BME280;67485;48.816;9.930;2023-03-04T07:03:13;97346.09;;;-2.23;88.27
78210;BME280;67485;48.816;9.930;2023-03-04T07:05:39;97352.78;;;-2.28;89.05
78210;BME280;67485;48.816;9.930;2023-03-04T07:08:05;97355.53;;;-2.22;89.34
78210;BME280;67485;48.816;9.930;2023-03-04T07:10:32;97356.66;;;-2.14;89.79
78210;BME280;67485;48.816;9.930;2023-03-04T07:12:57;97363.00;;;-2.02;89.32
78210;BME280;67485;48.816;9.930;2023-03-04T07:15:23;97362.28;;;-1.98;89.09
78210;BME280;67485;48.816;9.930;2023-03-04T07:17:49;97359.16;;;-1.88;89.44
78210;BME280;67485;48.816;9.930;2023-03-04T07:20:14;97360.91;;;-1.87;89.20
78210;BME280;67485;48.816;9.930;2023-03-04T07:22:40;97364.50;;;-1.82;89.18
78210;BME280;67485;48.816;9.930;2023-03-04T07:25:06;97372.72;;;-1.65;89.19
78210;BME280;67485;48.816;9.930;2023-03-04T07:27:32;97367.91;;;-1.54;88.32
78210;BME280;67485;48.816;9.930;2023-03-04T07:29:58;97365.41;;;-1.51;88.12
78210;BME280;67485;48.816;9.930;2023-03-04T07:32:23;97372.31;;;-1.50;88.02
78210;BME280;67485;48.816;9.930;2023-03-04T07:34:50;97374.25;;;-1.42;87.80
78210;BME280;67485;48.816;9.930;2023-03-04T07:37:15;97381.41;;;-1.32;87.78
78210;BME280;67485;48.816;9.930;2023-03-04T07:39:41;97382.84;;;-1.40;87.87
78210;BME280;67485;48.816;9.930;2023-03-04T07:42:07;97388.66;;;-1.48;88.11
78210;BME280;67485;48.816;9.930;2023-03-04T07:44:38;97388.88;;;-1.40;88.11
78210;BME280;67485;48.816;9.930;2023-03-04T07:47:03;97392.22;;;-1.44;88.24
78210;BME280;67485;48.816;9.930;2023-03-04T07:49:29;97389.66;;;-1.42;88.29
78210;BME280;67485;48.816;9.930;2023-03-04T07:51:55;97381.22;;;-1.38;87.75
78210;BME280;67485;48.816;9.930;2023-03-04T07:54:20;97387.00;;;-1.45;88.25
78210;BME280;67485;48.816;9.930;2023-03-04T07:56:46;97397.34;;;-1.44;88.98
78210;BME280;67485;48.816;9.930;2023-03-04T07:59:12;97386.47;;;-1.35;88.51
78210;BME280;67485;48.816;9.930;2023-03-04T08:01:38;97394.22;;;-1.34;88.25
78210;BME280;67485;48.816;9.930;2023-03-04T08:04:05;97386.47;;;-1.35;88.48
78210;BME280;67485;48.816;9.930;2023-03-04T08:06:32;97395.25;;;-1.27;88.73
78210;BME280;67485;48.816;9.930;2023-03-04T08:09:00;97393.47;;;-1.29;88.42
78210;BME280;67485;48.816;9.930;2023-03-04T08:11:27;97403.25;;;-1.47;88.87
78210;BME280;67485;48.816;9.930;2023-03-04T08:13:53;97394.53;;;-1.52;89.31
78210;BME280;67485;48.816;9.930;2023-03-04T08:16:20;97405.09;;;-1.42;89.25
78210;BME280;67485;48.816;9.930;2023-03-04T08:18:49;97400.81;;;-1.42;89.46
78210;BME280;67485;48.816;9.930;2023-03-04T08:21:17;97403.59;;;-1.34;89.45
78210;BME280;67485;48.816;9.930;2023-03-04T08:23:44;97390.81;;;-1.33;89.35
78210;BME280;67485;48.816;9.930;2023-03-04T08:26:19;97395.19;;;-1.30;88.83
78210;BME280;67485;48.816;9.930;2023-03-04T08:28:45;97395.81;;;-1.37;89.45
78210;BME280;67485;48.816;9.930;2023-03-04T08:31:12;97396.63;;;-1.38;89.58
78210;BME280;67485;48.816;9.930;2023-03-04T08:33:38;97410.31;;;-1.39;89.33
78210;BME280;67485;48.816;9.930;2023-03-04T08:36:04;97406.94;;;-1.38;89.58
78210;BME280;67485;48.816;9.930;2023-03-04T08:38:30;97401.09;;;-1.33;89.68
78210;BME280;67485;48.816;9.930;2023-03-04T08:40:59;97407.97;;;-1.32;89.93
78210;BME280;67485;48.816;9.930;2023-03-04T08:43:25;97406.94;;;-1.38;89.77
78210;BME280;67485;48.816;9.930;2023-03-04T08:45:52;97408.69;;;-1.37;89.50
78210;BME280;67485;48.816;9.930;2023-03-04T08:48:19;97417.31;;;-1.35;89.75
78210;BME280;67485;48.816;9.930;2023-03-04T08:50:46;97411.03;;;-1.15;89.44
78210;BME280;67485;48.816;9.930;2023-03-04T08:53:12;97407.03;;;-1.05;89.08
78210;BME280;67485;48.816;9.930;2023-03-04T08:55:39;97410.91;;;-0.89;87.99
78210;BME280;67485;48.816;9.930;2023-03-04T08:58:06;97414.47;;;-0.85;87.52
78210;BME280;67485;48.816;9.930;2023-03-04T09:00:32;97413.56;;;-0.86;87.21
78210;BME280;67485;48.816;9.930;2023-03-04T09:02:58;97412.97;;;-0.75;87.03
78210;BME280;67485;48.816;9.930;2023-03-04T09:05:24;97421.94;;;-0.62;86.39
78210;BME280;67485;48.816;9.930;2023-03-04T09:07:49;97416.50;;;-0.41;85.39
78210;BME280;67485;48.816;9.930;2023-03-04T09:10:15;97419.94;;;-0.39;84.83
78210;BME280;67485;48.816;9.930;2023-03-04T09:12:41;97417.72;;;-0.25;84.49
78210;BME280;67485;48.816;9.930;2023-03-04T09:15:07;97415.22;;;-0.24;84.23
78210;BME280;67485;48.816;9.930;2023-03-04T09:17:33;97412.75;;;-0.18;83.91
78210;BME280;67485;48.816;9.930;2023-03-04T09:19:59;97420.44;;;-0.21;83.78
78210;BME280;67485;48.816;9.930;2023-03-04T09:22:24;97419.47;;;-0.24;83.72
78210;BME280;67485;48.816;9.930;2023-03-04T09:24:50;97410.31;;;-0.13;84.00
78210;BME280;67485;48.816;9.930;2023-03-04T09:27:15;97410.13;;;-0.21;83.56
78210;BME280;67485;48.816;9.930;2023-03-04T09:29:42;97406.19;;;-0.06;83.67
78210;BME280;67485;48.816;9.930;2023-03-04T09:32:09;97419.78;;;-0.12;83.42
78210;BME280;67485;48.816;9.930;2023-03-04T09:34:34;97408.47;;;-0.19;83.51
78210;BME280;67485;48.816;9.930;2023-03-04T09:37:00;97415.75;;;-0.02;83.46
78210;BME280;67485;48.816;9.930;2023-03-04T09:39:25;97419.09;;;-0.06;83.06
78210;BME280;67485;48.816;9.930;2023-03-04T09:41:56;97415.66;;;-0.05;83.24
78210;BME280;67485;48.816;9.930;2023-03-04T09:44:33;97414.69;;;-0.09;83.20
78210;BME280;67485;48.816;9.930;2023-03-04T09:47:15;97411.44;;;-0.02;83.50
78210;BME280;67485;48.816;9.930;2023-03-04T09:49:44;97412.50;;;0.05;82.71
78210;BME280;67485;48.816;9.930;2023-03-04T09:52:43;97417.50;;;-0.01;82.91
78210;BME280;67485;48.816;9.930;2023-03-04T10:00:38;97418.94;;;-0.12;83.37
78210;BME280;67485;48.816;9.930;2023-03-04T10:05:55;97413.13;;;-0.04;82.99
78210;BME280;67485;48.816;9.930;2023-03-04T10:10:51;97405.44;;;-0.02;83.04
78210;BME280;67485;48.816;9.930;2023-03-04T10:13:36;97404.75;;;0.05;83.34
78210;BME280;67485;48.816;9.930;2023-03-04T10:16:05;97408.22;;;0.07;83.39
78210;BME280;67485;48.816;9.930;2023-03-04T10:18:36;97402.47;;;0.18;83.93
78210;BME280;67485;48.816;9.930;2023-03-04T10:21:13;97411.03;;;0.17;83.72
78210;BME280;67485;48.816;9.930;2023-03-04T10:23:42;97409.28;;;0.15;84.28
78210;BME280;67485;48.816;9.930;2023-03-04T10:26:17;97409.50;;;0.25;83.40
78210;BME280;67485;48.816;9.930;2023-03-04T10:28:45;97402.69;;;0.27;83.28
78210;BME280;67485;48.816;9.930;2023-03-04T10:31:33;97392.50;;;0.33;83.07
78210;BME280;67485;48.816;9.930;2023-03-04T10:34:04;97402.59;;;0.24;83.24
78210;BME280;67485;48.816;9.930;2023-03-04T10:41:59;97400.78;;;0.20;83.77
78210;BME280;67485;48.816;9.930;2023-03-04T10:44:27;97396.41;;;0.15;83.49
78210;BME280;67485;48.816;9.930;2023-03-04T10:46:55;97412.50;;;0.05;84.09
78210;BME280;67485;48.816;9.930;2023-03-04T10:49:22;97405.06;;;0.18;84.32
78210;BME280;67485;48.816;9.930;2023-03-04T10:52:26;97394.31;;;0.37;83.91
78210;BME280;67485;48.816;9.930;2023-03-04T10:55:16;97394.44;;;0.43;83.59
78210;BME280;67485;48.816;9.930;2023-03-04T10:57:47;97390.84;;;0.35;82.89
78210;BME280;67485;48.816;9.930;2023-03-04T11:02:44;97383.94;;;0.34;83.25
78210;BME280;67485;48.816;9.930;2023-03-04T11:05:18;97385.78;;;0.40;82.88
78210;BME280;67485;48.816;9.930;2023-03-04T11:07:54;97382.53;;;0.48;82.99
78210;BME280;67485;48.816;9.930;2023-03-04T11:10:39;97375.47;;;0.41;83.40
78210;BME280;67485;48.816;9.930;2023-03-04T11:13:25;97378.06;;;0.41;83.29
78210;BME280;67485;48.816;9.930;2023-03-04T11:18:23;97378.69;;;0.31;83.57
78210;BME280;67485;48.816;9.930;2023-03-04T11:20:53;97372.53;;;0.24;84.38
78210;BME280;67485;48.816;9.930;2023-03-04T11:26:02;97366.88;;;0.39;83.84
78210;BME280;67485;48.816;9.930;2023-03-04T11:28:43;97370.03;;;0.67;83.73
78210;BME280;67485;48.816;9.930;2023-03-04T11:31:19;97373.13;;;0.92;82.28
78210;BME280;67485;48.816;9.930;2023-03-04T11:34:06;97367.97;;;0.92;81.79
78210;BME280;67485;48.816;9.930;2023-03-04T11:36:56;97366.50;;;1.06;81.27
78210;BME280;67485;48.816;9.930;2023-03-04T11:39:36;97364.59;;;0.96;80.94
78210;BME280;67485;48.816;9.930;2023-03-04T11:44:34;97359.63;;;1.05;81.29
78210;BME280;67485;48.816;9.930;2023-03-04T11:53:01;97345.53;;;0.88;81.05
78210;BME280;67485;48.816;9.930;2023-03-04T11:55:39;97346.50;;;0.94;81.15
78210;BME280;67485;48.816;9.930;2023-03-04T12:00:54;97339.56;;;0.90;80.41
78210;BME280;67485;48.816;9.930;2023-03-04T12:09:28;97329.91;;;0.82;80.31
78210;BME280;67485;48.816;9.930;2023-03-04T12:25:27;97309.31;;;1.31;77.79
78210;BME280;67485;48.816;9.930;2023-03-04T12:36:23;97293.22;;;1.45;75.11
78210;BME280;67485;48.816;9.930;2023-03-04T12:41:50;97284.56;;;1.43;74.47
78210;BME280;67485;48.816;9.930;2023-03-04T12:44:21;97284.53;;;1.40;74.30
78210;BME280;67485;48.816;9.930;2023-03-04T12:47:09;97284.66;;;1.50;74.28
78210;BME280;67485;48.816;9.930;2023-03-04T12:52:43;97278.69;;;1.52;74.13
78210;BME280;67485;48.816;9.930;2023-03-04T12:55:16;97280.34;;;1.49;73.92
78210;BME280;67485;48.816;9.930;2023-03-04T12:57:43;97273.75;;;1.68;73.35
78210;BME280;67485;48.816;9.930;2023-03-04T13:00:33;97271.78;;;1.53;73.02
78210;BME280;67485;48.816;9.930;2023-03-04T13:03:30;97275.81;;;1.35;72.24
78210;BME280;67485;48.816;9.930;2023-03-04T13:09:21;97267.50;;;1.52;72.43
78210;BME280;67485;48.816;9.930;2023-03-04T13:14:30;97270.00;;;1.49;72.29
78210;BME280;67485;48.816;9.930;2023-03-04T13:17:01;97270.56;;;1.29;72.88
78210;BME280;67485;48.816;9.930;2023-03-04T13:24:56;97263.97;;;1.47;73.55
78210;BME280;67485;48.816;9.930;2023-03-04T13:31:06;97258.81;;;1.47;72.95
78210;BME280;67485;48.816;9.930;2023-03-04T13:36:03;97263.72;;;1.33;72.99
78210;BME280;67485;48.816;9.930;2023-03-04T13:38:33;97263.09;;;1.46;73.65
78210;BME280;67485;48.816;9.930;2023-03-04T13:41:21;97261.53;;;1.56;72.96
78210;BME280;67485;48.816;9.930;2023-03-04T13:53:55;97269.13;;;1.47;72.32
78210;BME280;67485;48.816;9.930;2023-03-04T13:56:45;97271.63;;;1.42;72.39
78210;BME280;67485;48.816;9.930;2023-03-04T13:59:21;97272.28;;;1.30;72.60
78210;BME280;67485;48.816;9.930;2023-03-04T14:01:53;97275.63;;;1.23;72.91
78210;BME280;67485;48.816;9.930;2023-03-04T14:04:26;97273.88;;;1.22;73.10
78210;BME280;67485;48.816;9.930;2023-03-04T14:06:54;97272.06;;;1.18;73.33
78210;BME280;67485;48.816;9.930;2023-03-04T14:09:31;97278.25;;;1.27;73.69
78210;BME280;67485;48.816;9.930;2023-03-04T14:12:00;97269.78;;;1.33;73.30
78210;BME280;67485;48.816;9.930;2023-03-04T14:14:33;97268.72;;;1.22;73.28
78210;BME280;67485;48.816;9.930;2023-03-04T14:17:05;97270.47;;;1.23;73.30
78210;BME280;67485;48.816;9.930;2023-03-04T14:19:37;97267.06;;;1.25;73.20
78210;BME280;67485;48.816;9.930;2023-03-04T14:27:24;97251.38;;;1.16;73.00
78210;BME280;67485;48.816;9.930;2023-03-04T14:30:01;97256.38;;;1.05;73.04
78210;BME280;67485;48.816;9.930;2023-03-04T14:32:28;97254.69;;;1.07;73.43
78210;BME280;67485;48.816;9.930;2023-03-04T14:35:04;97256.28;;;0.99;73.45
78210;BME280;67485;48.816;9.930;2023-03-04T14:37:51;97258.88;;;1.01;73.75
78210;BME280;67485;48.816;9.930;2023-03-04T14:40:49;97248.56;;;1.02;73.61
78210;BME280;67485;48.816;9.930;2023-03-04T14:43:19;97246.19;;;1.13;73.46
78210;BME280;67485;48.816;9.930;2023-03-04T14:45:48;97241.91;;;1.15;73.39
78210;BME280;67485;48.816;9.930;2023-03-04T14:48:30;97239.19;;;1.07;73.21
78210;BME280;67485;48.816;9.930;2023-03-04T14:50:58;97234.88;;;1.06;73.23
78210;BME280;67485;48.816;9.930;2023-03-04T14:53:26;97235.66;;;1.02;73.78
78210;BME280;67485;48.816;9.930;2023-03-04T14:56:03;97240.78;;;0.99;73.94